Terminal Aerodrome Forecast
Issued by NWS

Home | Current Version | Previous Version | Text Only | Print | Product List | Glossary On
Versions: 1 2 3 4 5 6 7 8 9 10 11 12 13 14 15 16 17 18 19
000
FTUS42 KTBW 231100
TAFPGD
TAF
KPGD 231138Z 2312/2412 05008KT P6SM SCT250
     FM231500 07011G18KT P6SM SCT040 SCT250
     FM240000 05009KT P6SM FEW040 SCT250=

USA.gov is the U.S. government's official web portal to all federal, state and local government web resources and services.